sensor_id;sensor_type;location;lat;lon;timestamp;pressure;altitude;pressure_sealevel;temperature
55038;BMP280;40937;53.594;10.034;2023-03-01T00:00:41;103320.94;;;1.24
55038;BMP280;40937;53.594;10.034;2023-03-01T00:03:12;103317.31;;;1.27
55038;BMP280;40937;53.594;10.034;2023-03-01T00:05:44;103315.84;;;1.23
55038;BMP280;40937;53.594;10.034;2023-03-01T00:08:13;103322.09;;;1.20
55038;BMP280;40937;53.594;10.034;2023-03-01T00:10:40;103319.09;;;1.26
55038;BMP280;40937;53.594;10.034;2023-03-01T00:13:07;103316.41;;;1.28
55038;BMP280;40937;53.594;10.034;2023-03-01T00:15:38;103319.19;;;1.25
55038;BMP280;40937;53.594;10.034;2023-03-01T00:18:05;103308.59;;;1.28
55038;BMP280;40937;53.594;10.034;2023-03-01T00:20:33;103312.53;;;1.34
55038;BMP280;40937;53.594;10.034;2023-03-01T00:23:00;103308.41;;;1.31
55038;BMP280;40937;53.594;10.034;2023-03-01T00:25:28;103310.25;;;1.29
55038;BMP280;40937;53.594;10.034;2023-03-01T00:27:58;103307.53;;;1.31
55038;BMP280;40937;53.594;10.034;2023-03-01T00:30:26;103309.00;;;1.35
55038;BMP280;40937;53.594;10.034;2023-03-01T00:32:53;103308.69;;;1.39
55038;BMP280;40937;53.594;10.034;2023-03-01T00:35:20;103313.16;;;1.37
55038;BMP280;40937;53.594;10.034;2023-03-01T00:37:48;103311.91;;;1.30
55038;BMP280;40937;53.594;10.034;2023-03-01T00:40:19;103309.84;;;1.35
55038;BMP280;40937;53.594;10.034;2023-03-01T00:42:47;103309.50;;;1.27
55038;BMP280;40937;53.594;10.034;2023-03-01T00:45:15;103308.78;;;1.25
55038;BMP280;40937;53.594;10.034;2023-03-01T00:47:43;103306.19;;;1.25
55038;BMP280;40937;53.594;10.034;2023-03-01T00:50:11;103303.13;;;1.18
55038;BMP280;40937;53.594;10.034;2023-03-01T00:52:38;103301.03;;;1.11
55038;BMP280;40937;53.594;10.034;2023-03-01T00:55:07;103305.31;;;1.12
55038;BMP280;40937;53.594;10.034;2023-03-01T00:57:34;103308.63;;;1.14
55038;BMP280;40937;53.594;10.034;2023-03-01T01:00:07;103305.63;;;1.20
55038;BMP280;40937;53.594;10.034;2023-03-01T01:02:35;103304.91;;;1.18
55038;BMP280;40937;53.594;10.034;2023-03-01T01:05:03;103298.88;;;1.17
55038;BMP280;40937;53.594;10.034;2023-03-01T01:07:30;103294.50;;;1.18
55038;BMP280;40937;53.594;10.034;2023-03-01T01:09:57;103292.31;;;1.12
55038;BMP280;40937;53.594;10.034;2023-03-01T01:12:25;103297.50;;;1.12
55038;BMP280;40937;53.594;10.034;2023-03-01T01:14:52;103301.69;;;1.14
55038;BMP280;40937;53.594;10.034;2023-03-01T01:17:20;103293.53;;;1.06
55038;BMP280;40937;53.594;10.034;2023-03-01T01:19:48;103294.47;;;1.05
55038;BMP280;40937;53.594;10.034;2023-03-01T01:22:15;103289.81;;;1.10
55038;BMP280;40937;53.594;10.034;2023-03-01T01:24:43;103287.50;;;1.05
55038;BMP280;40937;53.594;10.034;2023-03-01T01:27:10;103287.50;;;1.05
55038;BMP280;40937;53.594;10.034;2023-03-01T01:29:38;103285.53;;;1.09
55038;BMP280;40937;53.594;10.034;2023-03-01T01:32:05;103285.63;;;1.07
55038;BMP280;40937;53.594;10.034;2023-03-01T01:34:33;103282.09;;;1.08
55038;BMP280;40937;53.594;10.034;2023-03-01T01:37:01;103276.28;;;1.05
55038;BMP280;40937;53.594;10.034;2023-03-01T01:39:29;103274.06;;;0.99
55038;BMP280;40937;53.594;10.034;2023-03-01T01:41:57;103275.94;;;0.97
55038;BMP280;40937;53.594;10.034;2023-03-01T01:44:25;103280.84;;;1.01
55038;BMP280;40937;53.594;10.034;2023-03-01T01:46:54;103271.78;;;0.94
55038;BMP280;40937;53.594;10.034;2023-03-01T01:49:25;103265.84;;;0.92
55038;BMP280;40937;53.594;10.034;2023-03-01T01:52:00;103265.84;;;0.92
55038;BMP280;40937;53.594;10.034;2023-03-01T01:54:33;103261.47;;;0.93
55038;BMP280;40937;53.594;10.034;2023-03-01T01:57:10;103263.25;;;0.92
55038;BMP280;40937;53.594;10.034;2023-03-01T01:59:40;103254.50;;;0.93
55038;BMP280;40937;53.594;10.034;2023-03-01T02:02:10;103253.59;;;1.07
55038;BMP280;40937;53.594;10.034;2023-03-01T02:04:39;103254.44;;;1.07
55038;BMP280;40937;53.594;10.034;2023-03-01T02:07:13;103251.50;;;0.99
55038;BMP280;40937;53.594;10.034;2023-03-01T02:09:43;103248.38;;;0.94
55038;BMP280;40937;53.594;10.034;2023-03-01T02:12:13;103243.41;;;1.04
55038;BMP280;40937;53.594;10.034;2023-03-01T02:14:41;103244.25;;;1.04
55038;BMP280;40937;53.594;10.034;2023-03-01T02:17:08;103252.06;;;1.04
55038;BMP280;40937;53.594;10.034;2023-03-01T02:19:44;103247.78;;;1.03
55038;BMP280;40937;53.594;10.034;2023-03-01T02:22:20;103244.03;;;1.07
55038;BMP280;40937;53.594;10.034;2023-03-01T02:24:59;103244.25;;;1.04
55038;BMP280;40937;53.594;10.034;2023-03-01T02:27:35;103244.03;;;1.07
55038;BMP280;40937;53.594;10.034;2023-03-01T02:30:06;103243.22;;;1.07
55038;BMP280;40937;53.594;10.034;2023-03-01T02:32:34;103240.72;;;1.05
55038;BMP280;40937;53.594;10.034;2023-03-01T02:35:01;103240.50;;;1.08
55038;BMP280;40937;53.594;10.034;2023-03-01T02:37:35;103239.47;;;1.11
55038;BMP280;40937;53.594;10.034;2023-03-01T02:40:06;103235.91;;;0.99
55038;BMP280;40937;53.594;10.034;2023-03-01T02:42:45;103237.06;;;0.95
55038;BMP280;40937;53.594;10.034;2023-03-01T02:45:15;103247.66;;;0.92
55038;BMP280;40937;53.594;10.034;2023-03-01T02:47:43;103243.31;;;1.05
55038;BMP280;40937;53.594;10.034;2023-03-01T02:50:22;103238.81;;;1.07
55038;BMP280;40937;53.594;10.034;2023-03-01T02:52:56;103238.00;;;1.07
55038;BMP280;40937;53.594;10.034;2023-03-01T02:55:24;103235.50;;;1.05
55038;BMP280;40937;53.594;10.034;2023-03-01T02:57:52;103229.59;;;1.03
55038;BMP280;40937;53.594;10.034;2023-03-01T03:00:23;103224.38;;;1.03
55038;BMP280;40937;53.594;10.034;2023-03-01T03:02:52;103220.41;;;0.98
55038;BMP280;40937;53.594;10.034;2023-03-01T03:05:25;103234.66;;;0.92
55038;BMP280;40937;53.594;10.034;2023-03-01T03:07:57;103236.84;;;0.98
55038;BMP280;40937;53.594;10.034;2023-03-01T03:10:27;103222.00;;;1.00
55038;BMP280;40937;53.594;10.034;2023-03-01T03:12:56;103222.00;;;1.00
55038;BMP280;40937;53.594;10.034;2023-03-01T03:15:26;103220.09;;;1.02
55038;BMP280;40937;53.594;10.034;2023-03-01T03:17:55;103230.28;;;0.93
55038;BMP280;40937;53.594;10.034;2023-03-01T03:20:26;103221.09;;;0.87
55038;BMP280;40937;53.594;10.034;2023-03-01T03:22:55;103213.88;;;0.92
55038;BMP280;40937;53.594;10.034;2023-03-01T03:25:24;103218.66;;;0.98
55038;BMP280;40937;53.594;10.034;2023-03-01T03:27:53;103217.09;;;0.96
55038;BMP280;40937;53.594;10.034;2023-03-01T03:30:25;103223.88;;;0.98
55038;BMP280;40937;53.594;10.034;2023-03-01T03:32:53;103220.72;;;0.93
55038;BMP280;40937;53.594;10.034;2023-03-01T03:35:22;103205.50;;;0.87
55038;BMP280;40937;53.594;10.034;2023-03-01T03:37:51;103198.47;;;0.89
55038;BMP280;40937;53.594;10.034;2023-03-01T03:40:34;103203.25;;;0.95
55038;BMP280;40937;53.594;10.034;2023-03-01T03:43:02;103204.00;;;0.97
55038;BMP280;40937;53.594;10.034;2023-03-01T03:45:31;103208.88;;;1.02
55038;BMP280;40937;53.594;10.034;2023-03-01T03:47:59;103204.50;;;1.02
55038;BMP280;40937;53.594;10.034;2023-03-01T03:50:26;103204.09;;;1.08
55038;BMP280;40937;53.594;10.034;2023-03-01T03:52:53;103203.19;;;1.10
55038;BMP280;40937;53.594;10.034;2023-03-01T03:55:20;103204.09;;;1.08
55038;BMP280;40937;53.594;10.034;2023-03-01T03:57:48;103200.06;;;1.04
55038;BMP280;40937;53.594;10.034;2023-03-01T04:00:19;103199.84;;;1.07
55038;BMP280;40937;53.594;10.034;2023-03-01T04:02:48;103194.44;;;1.11
55038;BMP280;40937;53.594;10.034;2023-03-01T04:05:16;103189.78;;;1.16
55038;BMP280;40937;53.594;10.034;2023-03-01T04:07:45;103189.38;;;1.22
55038;BMP280;40937;53.594;10.034;2023-03-01T04:10:14;103189.16;;;1.25
55038;BMP280;40937;53.594;10.034;2023-03-01T04:12:41;103188.97;;;1.28
55038;BMP280;40937;53.594;10.034;2023-03-01T04:15:11;103190.59;;;1.29
55038;BMP280;40937;53.594;10.034;2023-03-01T04:17:39;103186.88;;;1.33
55038;BMP280;40937;53.594;10.034;2023-03-01T04:20:10;103185.59;;;1.39
55038;BMP280;40937;53.594;10.034;2023-03-01T04:22:38;103188.09;;;1.40
55038;BMP280;40937;53.594;10.034;2023-03-01T04:25:06;103186.22;;;1.42
55038;BMP280;40937;53.594;10.034;2023-03-01T04:27:34;103182.69;;;1.43
55038;BMP280;40937;53.594;10.034;2023-03-01T04:30:02;103186.00;;;1.45
55038;BMP280;40937;53.594;10.034;2023-03-01T04:32:29;103192.69;;;1.50
55038;BMP280;40937;53.594;10.034;2023-03-01T04:34:57;103180.41;;;1.52
55038;BMP280;40937;53.594;10.034;2023-03-01T04:37:26;103183.72;;;1.54
55038;BMP280;40937;53.594;10.034;2023-03-01T04:39:53;103190.38;;;1.58
55038;BMP280;40937;53.594;10.034;2023-03-01T04:42:20;103182.38;;;1.61
55038;BMP280;40937;53.594;10.034;2023-03-01T04:44:47;103187.69;;;1.59
55038;BMP280;40937;53.594;10.034;2023-03-01T04:47:17;103189.22;;;1.62
55038;BMP280;40937;53.594;10.034;2023-03-01T04:49:44;103194.97;;;1.67
55038;BMP280;40937;53.594;10.034;2023-03-01T04:52:11;103189.75;;;1.67
55038;BMP280;40937;53.594;10.034;2023-03-01T04:54:39;103186.19;;;1.68
55038;BMP280;40937;53.594;10.034;2023-03-01T04:57:07;103184.34;;;1.70
55038;BMP280;40937;53.594;10.034;2023-03-01T04:59:34;103184.13;;;1.73
55038;BMP280;40937;53.594;10.034;2023-03-01T05:02:01;103178.94;;;1.73
55038;BMP280;40937;53.594;10.034;2023-03-01T05:04:30;103185.88;;;1.73
55038;BMP280;40937;53.594;10.034;2023-03-01T05:06:57;103181.22;;;1.78
55038;BMP280;40937;53.594;10.034;2023-03-01T05:09:24;103179.94;;;1.84
55038;BMP280;40937;53.594;10.034;2023-03-01T05:11:53;103167.88;;;1.83
55038;BMP280;40937;53.594;10.034;2023-03-01T05:14:20;103174.50;;;1.87
55038;BMP280;40937;53.594;10.034;2023-03-01T05:16:47;103177.00;;;1.88
55038;BMP280;40937;53.594;10.034;2023-03-01T05:19:14;103173.44;;;1.89
55038;BMP280;40937;53.594;10.034;2023-03-01T05:21:44;103175.94;;;1.91
55038;BMP280;40937;53.594;10.034;2023-03-01T05:24:32;103178.31;;;1.94
55038;BMP280;40937;53.594;10.034;2023-03-01T05:27:02;103181.88;;;1.93
55038;BMP280;40937;53.594;10.034;2023-03-01T05:29:31;103181.16;;;1.91
55038;BMP280;40937;53.594;10.034;2023-03-01T05:32:01;103179.25;;;1.93
55038;BMP280;40937;53.594;10.034;2023-03-01T05:34:31;103183.09;;;2.00
55038;BMP280;40937;53.594;10.034;2023-03-01T05:36:58;103192.38;;;2.04
55038;BMP280;40937;53.594;10.034;2023-03-01T05:39:27;103179.97;;;2.08
55038;BMP280;40937;53.594;10.034;2023-03-01T05:41:55;103170.25;;;2.10
55038;BMP280;40937;53.594;10.034;2023-03-01T05:44:24;103171.72;;;2.14
55038;BMP280;40937;53.594;10.034;2023-03-01T05:46:52;103172.53;;;2.14
55038;BMP280;40937;53.594;10.034;2023-03-01T05:49:19;103165.56;;;2.15
55038;BMP280;40937;53.594;10.034;2023-03-01T05:51:51;103162.13;;;2.14
55038;BMP280;40937;53.594;10.034;2023-03-01T05:54:19;103150.03;;;2.13
55038;BMP280;40937;53.594;10.034;2023-03-01T05:56:47;103159.63;;;2.13
55038;BMP280;40937;53.594;10.034;2023-03-01T05:59:14;103157.84;;;2.13
55038;BMP280;40937;53.594;10.034;2023-03-01T06:01:43;103145.78;;;2.12
55038;BMP280;40937;53.594;10.034;2023-03-01T06:04:10;103145.06;;;2.10
55038;BMP280;40937;53.594;10.034;2023-03-01T06:06:38;103146.22;;;2.06
55038;BMP280;40937;53.594;10.034;2023-03-01T06:09:05;103152.13;;;2.08
55038;BMP280;40937;53.594;10.034;2023-03-01T06:11:36;103150.50;;;2.07
55038;BMP280;40937;53.594;10.034;2023-03-01T06:14:03;103145.06;;;2.10
55038;BMP280;40937;53.594;10.034;2023-03-01T06:16:32;103158.22;;;2.09
55038;BMP280;40937;53.594;10.034;2023-03-01T06:19:00;103153.59;;;2.12
55038;BMP280;40937;53.594;10.034;2023-03-01T06:21:27;103150.03;;;2.13
55038;BMP280;40937;53.594;10.034;2023-03-01T06:23:55;103153.38;;;2.15
55038;BMP280;40937;53.594;10.034;2023-03-01T06:26:25;103157.53;;;2.18
55038;BMP280;40937;53.594;10.034;2023-03-01T06:28:52;103152.41;;;2.16
55038;BMP280;40937;53.594;10.034;2023-03-01T06:31:19;103150.56;;;2.18
55038;BMP280;40937;53.594;10.034;2023-03-01T06:33:46;103154.81;;;2.20
55038;BMP280;40937;53.594;10.034;2023-03-01T06:36:15;103158.16;;;2.22
55038;BMP280;40937;53.594;10.034;2023-03-01T06:38:44;103152.72;;;2.25
55038;BMP280;40937;53.594;10.034;2023-03-01T06:41:12;103156.88;;;2.27
55038;BMP280;40937;53.594;10.034;2023-03-01T06:43:39;103159.56;;;2.26
55038;BMP280;40937;53.594;10.034;2023-03-01T06:46:06;103157.72;;;2.28
55038;BMP280;40937;53.594;10.034;2023-03-01T06:48:33;103156.38;;;2.33
55038;BMP280;40937;53.594;10.034;2023-03-01T06:51:01;103163.88;;;2.38
55038;BMP280;40937;53.594;10.034;2023-03-01T06:53:30;103168.88;;;2.41
55038;BMP280;40937;53.594;10.034;2023-03-01T06:55:57;103168.75;;;2.43
55038;BMP280;40937;53.594;10.034;2023-03-01T06:58:25;103170.31;;;2.45
55038;BMP280;40937;53.594;10.034;2023-03-01T07:00:53;103175.31;;;2.48
55038;BMP280;40937;53.594;10.034;2023-03-01T07:03:20;103163.72;;;2.52
55038;BMP280;40937;53.594;10.034;2023-03-01T07:05:49;103174.97;;;2.53
55038;BMP280;40937;53.594;10.034;2023-03-01T07:08:17;103171.31;;;2.56
55038;BMP280;40937;53.594;10.034;2023-03-01T07:10:46;103166.72;;;2.59
55038;BMP280;40937;53.594;10.034;2023-03-01T07:13:13;103171.59;;;2.64
55038;BMP280;40937;53.594;10.034;2023-03-01T07:15:40;103164.69;;;2.63
55038;BMP280;40937;53.594;10.034;2023-03-01T07:18:08;103159.25;;;2.66
55038;BMP280;40937;53.594;10.034;2023-03-01T07:20:35;103159.94;;;2.68
55038;BMP280;40937;53.594;10.034;2023-03-01T07:23:02;103158.78;;;2.72
55038;BMP280;40937;53.594;10.034;2023-03-01T07:25:29;103157.00;;;2.72
55038;BMP280;40937;53.594;10.034;2023-03-01T07:27:59;103156.16;;;2.72
55038;BMP280;40937;53.594;10.034;2023-03-01T07:30:26;103147.41;;;2.73
55038;BMP280;40937;53.594;10.034;2023-03-01T07:32:54;103144.06;;;2.71
55038;BMP280;40937;53.594;10.034;2023-03-01T07:35:22;103147.41;;;2.73
55038;BMP280;40937;53.594;10.034;2023-03-01T07:37:50;103148.25;;;2.73
55038;BMP280;40937;53.594;10.034;2023-03-01T07:40:18;103147.78;;;2.80
55038;BMP280;40937;53.594;10.034;2023-03-01T07:42:45;103148.59;;;2.80
55038;BMP280;40937;53.594;10.034;2023-03-01T07:45:15;103146.97;;;2.79
55038;BMP280;40937;53.594;10.034;2023-03-01T07:47:42;103146.63;;;2.84
55038;BMP280;40937;53.594;10.034;2023-03-01T07:50:11;103148.94;;;2.76
55038;BMP280;40937;53.594;10.034;2023-03-01T07:52:39;103150.28;;;2.81
55038;BMP280;40937;53.594;10.034;2023-03-01T07:55:10;103148.91;;;2.88
55038;BMP280;40937;53.594;10.034;2023-03-01T07:57:37;103147.81;;;2.91
55038;BMP280;40937;53.594;10.034;2023-03-01T08:00:06;103146.06;;;2.91
55038;BMP280;40937;53.594;10.034;2023-03-01T08:02:41;103140.97;;;2.90
55038;BMP280;40937;53.594;10.034;2023-03-01T08:05:09;103143.00;;;2.98
55038;BMP280;40937;53.594;10.034;2023-03-01T08:07:37;103150.56;;;3.01
55038;BMP280;40937;53.594;10.034;2023-03-01T08:10:05;103162.16;;;3.08
55038;BMP280;40937;53.594;10.034;2023-03-01T08:12:34;103161.00;;;3.12
55038;BMP280;40937;53.594;10.034;2023-03-01T08:15:01;103155.44;;;3.17
55038;BMP280;40937;53.594;10.034;2023-03-01T08:17:28;103161.47;;;3.17
55038;BMP280;40937;53.594;10.034;2023-03-01T08:19:57;103171.66;;;3.20
55038;BMP280;40937;53.594;10.034;2023-03-01T08:22:24;103164.56;;;3.22
55038;BMP280;40937;53.594;10.034;2023-03-01T08:24:51;103158.41;;;3.23
55038;BMP280;40937;53.594;10.034;2023-03-01T08:27:18;103157.91;;;3.29
55038;BMP280;40937;53.594;10.034;2023-03-01T08:29:45;103163.59;;;3.35
55038;BMP280;40937;53.594;10.034;2023-03-01T08:32:15;103162.53;;;3.37
55038;BMP280;40937;53.594;10.034;2023-03-01T08:34:46;103163.34;;;3.38
55038;BMP280;40937;53.594;10.034;2023-03-01T08:37:14;103163.13;;;3.41
55038;BMP280;40937;53.594;10.034;2023-03-01T08:39:41;103156.03;;;3.43
55038;BMP280;40937;53.594;10.034;2023-03-01T08:42:09;103159.00;;;3.50
55038;BMP280;40937;53.594;10.034;2023-03-01T08:44:36;103154.09;;;3.56
55038;BMP280;40937;53.594;10.034;2023-03-01T08:47:03;103156.34;;;3.61
55038;BMP280;40937;53.594;10.034;2023-03-01T08:49:30;103156.22;;;3.62
55038;BMP280;40937;53.594;10.034;2023-03-01T08:51:59;103148.28;;;3.64
55038;BMP280;40937;53.594;10.034;2023-03-01T08:54:28;103150.53;;;3.69
55038;BMP280;40937;53.594;10.034;2023-03-01T08:56:55;103158.00;;;3.73
55038;BMP280;40937;53.594;10.034;2023-03-01T08:59:25;103162.16;;;3.76
55038;BMP280;40937;53.594;10.034;2023-03-01T09:01:52;103163.28;;;3.83
55038;BMP280;40937;53.594;10.034;2023-03-01T09:04:20;103169.38;;;3.83
55038;BMP280;40937;53.594;10.034;2023-03-01T09:06:47;103161.28;;;3.87
55038;BMP280;40937;53.594;10.034;2023-03-01T09:09:16;103160.06;;;3.91
55038;BMP280;40937;53.594;10.034;2023-03-01T09:11:45;103162.31;;;3.95
55038;BMP280;40937;53.594;10.034;2023-03-01T09:14:13;103163.47;;;4.02
55038;BMP280;40937;53.594;10.034;2023-03-01T09:16:40;103165.84;;;4.06
55038;BMP280;40937;53.594;10.034;2023-03-01T09:19:07;103156.72;;;4.11
55038;BMP280;40937;53.594;10.034;2023-03-01T09:21:34;103162.06;;;4.10
55038;BMP280;40937;53.594;10.034;2023-03-01T09:24:02;103160.72;;;4.15
55038;BMP280;40937;53.594;10.034;2023-03-01T09:26:29;103166.44;;;4.20
55038;BMP280;40937;53.594;10.034;2023-03-01T09:28:57;103166.25;;;4.22
55038;BMP280;40937;53.594;10.034;2023-03-01T09:31:25;103167.50;;;4.18
55038;BMP280;40937;53.594;10.034;2023-03-01T09:33:53;103167.25;;;4.21
55038;BMP280;40937;53.594;10.034;2023-03-01T09:36:22;103167.25;;;4.21
55038;BMP280;40937;53.594;10.034;2023-03-01T09:38:51;103165.41;;;4.21
55038;BMP280;40937;53.594;10.034;2023-03-01T09:41:30;103168.84;;;4.22
55038;BMP280;40937;53.594;10.034;2023-03-01T09:44:03;103165.28;;;4.23
55038;BMP280;40937;53.594;10.034;2023-03-01T09:46:37;103173.84;;;4.25
55038;BMP280;40937;53.594;10.034;2023-03-01T09:49:11;103168.59;;;4.25
55038;BMP280;40937;53.594;10.034;2023-03-01T09:51:39;103167.41;;;4.29
55038;BMP280;40937;53.594;10.034;2023-03-01T09:54:06;103161.00;;;4.33
55038;BMP280;40937;53.594;10.034;2023-03-01T09:56:39;103159.78;;;4.37
55038;BMP280;40937;53.594;10.034;2023-03-01T09:59:17;103161.06;;;4.43
55038;BMP280;40937;53.594;10.034;2023-03-01T10:01:50;103166.84;;;4.47
55038;BMP280;40937;53.594;10.034;2023-03-01T10:04:36;103168.97;;;4.53
55038;BMP280;40937;53.594;10.034;2023-03-01T10:07:21;103160.88;;;4.56
55038;BMP280;40937;53.594;10.034;2023-03-01T10:09:51;103158.13;;;4.57
55038;BMP280;40937;53.594;10.034;2023-03-01T10:12:22;103159.69;;;4.60
55038;BMP280;40937;53.594;10.034;2023-03-01T10:14:55;103155.84;;;4.64
55038;BMP280;40937;53.594;10.034;2023-03-01T10:17:28;103159.41;;;4.63
55038;BMP280;40937;53.594;10.034;2023-03-01T10:20:10;103159.28;;;4.65
55038;BMP280;40937;53.594;10.034;2023-03-01T10:22:41;103157.94;;;4.70
55038;BMP280;40937;53.594;10.034;2023-03-01T10:25:14;103160.31;;;4.73
55038;BMP280;40937;53.594;10.034;2023-03-01T10:27:46;103158.25;;;4.77
55038;BMP280;40937;53.594;10.034;2023-03-01T10:30:21;103157.16;;;4.80
55038;BMP280;40937;53.594;10.034;2023-03-01T10:32:51;103150.81;;;4.82
55038;BMP280;40937;53.594;10.034;2023-03-01T10:35:22;103147.81;;;4.87
55038;BMP280;40937;53.594;10.034;2023-03-01T10:38:03;103145.41;;;4.95
55038;BMP280;40937;53.594;10.034;2023-03-01T10:40:31;103149.00;;;4.94
55038;BMP280;40937;53.594;10.034;2023-03-01T10:42:59;103147.06;;;4.96
55038;BMP280;40937;53.594;10.034;2023-03-01T10:45:35;103143.75;;;4.94
55038;BMP280;40937;53.594;10.034;2023-03-01T10:48:10;103143.22;;;5.00
55038;BMP280;40937;53.594;10.034;2023-03-01T10:50:39;103146.66;;;5.01
55038;BMP280;40937;53.594;10.034;2023-03-01T10:53:24;103147.34;;;5.03
55038;BMP280;40937;53.594;10.034;2023-03-01T10:56:01;103147.09;;;5.06
55038;BMP280;40937;53.594;10.034;2023-03-01T10:58:29;103138.66;;;5.02
55038;BMP280;40937;53.594;10.034;2023-03-01T11:00:59;103141.03;;;5.05
55038;BMP280;40937;53.594;10.034;2023-03-01T11:03:28;103131.25;;;5.07
55038;BMP280;40937;53.594;10.034;2023-03-01T11:06:00;103132.41;;;5.14
55038;BMP280;40937;53.594;10.034;2023-03-01T11:11:29;103128.97;;;5.24
55038;BMP280;40937;53.594;10.034;2023-03-01T11:13:59;103125.84;;;5.30
55038;BMP280;40937;53.594;10.034;2023-03-01T11:16:34;103127.59;;;5.29
55038;BMP280;40937;53.594;10.034;2023-03-01T11:19:15;103126.22;;;5.35
55038;BMP280;40937;53.594;10.034;2023-03-01T11:21:52;103119.66;;;5.41
55038;BMP280;40937;53.594;10.034;2023-03-01T11:24:24;103117.31;;;5.47
55038;BMP280;40937;53.594;10.034;2023-03-01T11:26:54;103120.22;;;5.54
55038;BMP280;40937;53.594;10.034;2023-03-01T11:29:28;103117.19;;;5.59
55038;BMP280;40937;53.594;10.034;2023-03-01T11:32:01;103117.47;;;5.65
55038;BMP280;40937;53.594;10.034;2023-03-01T11:34:38;103116.94;;;5.71
55038;BMP280;40937;53.594;10.034;2023-03-01T11:37:16;103110.88;;;5.81
55038;BMP280;40937;53.594;10.034;2023-03-01T11:39:52;103108.38;;;5.89
55038;BMP280;40937;53.594;10.034;2023-03-01T11:42:27;103110.03;;;6.00
55038;BMP280;40937;53.594;10.034;2023-03-01T11:44:59;103103.97;;;6.09
55038;BMP280;40937;53.594;10.034;2023-03-01T11:47:41;103099.53;;;6.19
55038;BMP280;40937;53.594;10.034;2023-03-01T11:50:28;103102.00;;;6.31
55038;BMP280;40937;53.594;10.034;2023-03-01T11:53:11;103096.56;;;6.42
55038;BMP280;40937;53.594;10.034;2023-03-01T11:55:52;103095.41;;;6.54
55038;BMP280;40937;53.594;10.034;2023-03-01T11:58:45;103096.22;;;6.64
55038;BMP280;40937;53.594;10.034;2023-03-01T12:01:24;103080.97;;;6.78
55038;BMP280;40937;53.594;10.034;2023-03-01T12:04:21;103090.97;;;6.92
55038;BMP280;40937;53.594;10.034;2023-03-01T12:06:57;103086.50;;;7.02
55038;BMP280;40937;53.594;10.034;2023-03-01T12:10:34;103084.78;;;7.11
55038;BMP280;40937;53.594;10.034;2023-03-01T12:13:59;103091.31;;;7.25
55038;BMP280;40937;53.594;10.034;2023-03-01T12:20:25;103073.03;;;7.51
55038;BMP280;40937;53.594;10.034;2023-03-01T12:23:22;103072.63;;;7.64
55038;BMP280;40937;53.594;10.034;2023-03-01T12:25:54;103073.22;;;7.76
55038;BMP280;40937;53.594;10.034;2023-03-01T14:07:32;102985.94;;;8.33
55038;BMP280;40937;53.594;10.034;2023-03-01T14:10:04;102976.06;;;8.27
55038;BMP280;40937;53.594;10.034;2023-03-01T14:12:40;102965.03;;;8.23
55038;BMP280;40937;53.594;10.034;2023-03-01T14:15:16;102961.09;;;8.19
55038;BMP280;40937;53.594;10.034;2023-03-01T14:17:51;102957.94;;;8.15
55038;BMP280;40937;53.594;10.034;2023-03-01T14:20:22;102963.50;;;8.12
55038;BMP280;40937;53.594;10.034;2023-03-01T14:22:53;102953.97;;;8.11
55038;BMP280;40937;53.594;10.034;2023-03-01T14:25:24;102958.22;;;8.04
55038;BMP280;40937;53.594;10.034;2023-03-01T14:27:59;102951.16;;;8.05
55038;BMP280;40937;53.594;10.034;2023-03-01T14:30:31;102952.59;;;7.99
55038;BMP280;40937;53.594;10.034;2023-03-01T14:33:01;102950.97;;;7.98
55038;BMP280;40937;53.594;10.034;2023-03-01T14:35:30;102947.00;;;7.94
55038;BMP280;40937;53.594;10.034;2023-03-01T14:38:00;102944.53;;;7.92
55038;BMP280;40937;53.594;10.034;2023-03-01T14:40:30;102941.38;;;7.89
55038;BMP280;40937;53.594;10.034;2023-03-01T14:42:59;102938.13;;;7.87
55038;BMP280;40937;53.594;10.034;2023-03-01T14:45:29;102935.63;;;7.85
55038;BMP280;40937;53.594;10.034;2023-03-01T14:47:59;102932.97;;;7.77
55038;BMP280;40937;53.594;10.034;2023-03-01T14:50:29;102938.22;;;7.77
55038;BMP280;40937;53.594;10.034;2023-03-01T14:53:01;102926.25;;;7.83
55038;BMP280;40937;53.594;10.034;2023-03-01T14:55:31;102920.34;;;7.80
55038;BMP280;40937;53.594;10.034;2023-03-01T14:57:58;102917.69;;;7.80
55038;BMP280;40937;53.594;10.034;2023-03-01T15:00:28;102908.00;;;7.81
55038;BMP280;40937;53.594;10.034;2023-03-01T15:03:07;102912.44;;;7.80
55038;BMP280;40937;53.594;10.034;2023-03-01T15:05:40;102913.09;;;7.74
55038;BMP280;40937;53.594;10.034;2023-03-01T15:08:17;102906.69;;;7.77
55038;BMP280;40937;53.594;10.034;2023-03-01T15:10:56;102906.59;;;7.87
55038;BMP280;40937;53.594;10.034;2023-03-01T15:13:25;102903.28;;;7.85
55038;BMP280;40937;53.594;10.034;2023-03-01T15:16:01;102904.75;;;7.87
55038;BMP280;40937;53.594;10.034;2023-03-01T15:18:30;102905.91;;;7.85
55038;BMP280;40937;53.594;10.034;2023-03-01T15:21:06;102894.25;;;7.87
55038;BMP280;40937;53.594;10.034;2023-03-01T15:23:36;102891.44;;;7.89
55038;BMP280;40937;53.594;10.034;2023-03-01T15:26:05;102892.47;;;7.88
55038;BMP280;40937;53.594;10.034;2023-03-01T15:28:34;102893.91;;;7.82
55038;BMP280;40937;53.594;10.034;2023-03-01T15:31:20;102897.16;;;7.76
55038;BMP280;40937;53.594;10.034;2023-03-01T15:33:48;102886.81;;;7.74
55038;BMP280;40937;53.594;10.034;2023-03-01T15:36:44;102886.00;;;7.74
55038;BMP280;40937;53.594;10.034;2023-03-01T15:39:37;102898.13;;;7.75
55038;BMP280;40937;53.594;10.034;2023-03-01T15:42:07;102892.06;;;7.74
55038;BMP280;40937;53.594;10.034;2023-03-01T15:44:38;102898.13;;;7.75
55038;BMP280;40937;53.594;10.034;2023-03-01T15:47:23;102893.72;;;7.75
55038;BMP280;40937;53.594;10.034;2023-03-01T15:49:52;102902.72;;;7.73
55038;BMP280;40937;53.594;10.034;2023-03-01T15:52:22;102900.09;;;7.73
55038;BMP280;40937;53.594;10.034;2023-03-01T15:54:58;102895.66;;;7.73
55038;BMP280;40937;53.594;10.034;2023-03-01T15:57:26;102892.06;;;7.74
55038;BMP280;40937;53.594;10.034;2023-03-01T15:59:53;102895.00;;;7.71
55038;BMP280;40937;53.594;10.034;2023-03-01T16:02:21;102888.78;;;7.72